createdAt,value
2023-03-31T00:00:34.920Z,1.92
2023-03-31T00:03:09.698Z,1.80
2023-03-31T00:05:38.029Z,1.88
2023-03-31T00:08:11.792Z,2.20
2023-03-31T00:10:42.702Z,1.88
2023-03-31T00:13:23.685Z,1.90
2023-03-31T00:15:59.744Z,1.90
2023-03-31T00:18:33.585Z,1.60
2023-03-31T00:21:14.481Z,1.88
2023-03-31T00:23:48.506Z,1.90
2023-03-31T00:26:15.804Z,1.50
2023-03-31T00:28:42.953Z,1.40
2023-03-31T00:31:16.593Z,1.65
2023-03-31T00:33:43.941Z,1.65
2023-03-31T00:36:17.548Z,1.58
2023-03-31T00:38:46.388Z,1.80
2023-03-31T00:41:13.514Z,1.52
2023-03-31T00:43:48.568Z,1.70
2023-03-31T00:46:28.145Z,1.50
2023-03-31T00:49:05.489Z,1.50
2023-03-31T00:51:35.634Z,1.67
2023-03-31T00:54:11.488Z,1.50
2023-03-31T00:56:40.822Z,1.08
2023-03-31T00:59:16.577Z,1.50
2023-03-31T01:01:45.180Z,1.50
2023-03-31T01:04:13.908Z,1.25
2023-03-31T01:07:03.561Z,1.50
2023-03-31T01:09:35.078Z,1.40
2023-03-31T01:12:13.461Z,1.50
2023-03-31T01:14:47.469Z,1.40
2023-03-31T01:17:25.882Z,1.70
2023-03-31T01:19:56.085Z,1.70
2023-03-31T01:22:32.774Z,1.77
2023-03-31T01:25:01.771Z,1.85
2023-03-31T01:27:44.487Z,1.52
2023-03-31T01:30:37.791Z,1.67
2023-03-31T01:33:32.895Z,1.77
2023-03-31T01:36:09.329Z,1.45
2023-03-31T01:39:03.555Z,0.98
2023-03-31T01:41:36.205Z,1.60
2023-03-31T01:44:12.476Z,1.50
2023-03-31T01:46:48.070Z,1.25
2023-03-31T01:49:40.512Z,1.35
2023-03-31T01:52:09.777Z,1.50
2023-03-31T01:54:57.487Z,1.45
2023-03-31T01:57:37.042Z,1.60
2023-03-31T02:00:15.655Z,1.45
2023-03-31T02:02:42.963Z,1.63
2023-03-31T02:05:22.713Z,1.52
2023-03-31T02:07:58.339Z,1.65
2023-03-31T02:10:33.573Z,1.65
2023-03-31T02:13:21.397Z,1.50
2023-03-31T02:15:57.544Z,1.50
2023-03-31T02:18:27.268Z,1.42
2023-03-31T02:21:03.533Z,1.45
2023-03-31T02:23:32.494Z,1.38
2023-03-31T02:26:12.713Z,1.50
2023-03-31T02:28:39.972Z,1.65
2023-03-31T02:31:07.133Z,1.40
2023-03-31T02:33:41.501Z,1.48
2023-03-31T02:36:09.108Z,1.70
2023-03-31T02:38:45.636Z,1.65
2023-03-31T02:41:12.910Z,1.30
2023-03-31T02:43:40.434Z,1.50
2023-03-31T02:48:44.082Z,1.33
2023-03-31T02:51:17.540Z,1.30
2023-03-31T02:53:58.711Z,1.52
2023-03-31T02:56:51.560Z,1.15
2023-03-31T02:59:35.425Z,1.70
2023-03-31T03:02:25.698Z,1.30
2023-03-31T03:05:14.743Z,1.23
2023-03-31T03:07:59.746Z,1.45
2023-03-31T03:10:36.580Z,1.40
2023-03-31T03:13:33.670Z,1.50
2023-03-31T03:16:07.597Z,1.50
2023-03-31T03:18:41.612Z,1.40
2023-03-31T03:21:08.795Z,1.35
2023-03-31T03:23:35.909Z,1.38
2023-03-31T03:26:09.573Z,1.65
2023-03-31T03:28:36.811Z,1.60
2023-03-31T03:31:10.662Z,1.33
2023-03-31T03:33:38.028Z,1.35
2023-03-31T03:36:05.805Z,1.50
2023-03-31T03:38:39.693Z,1.50
2023-03-31T03:41:06.987Z,1.60
2023-03-31T03:43:34.068Z,1.40
2023-03-31T03:46:07.710Z,1.52
2023-03-31T03:48:35.222Z,1.60
2023-03-31T03:51:09.540Z,1.27
2023-03-31T03:53:36.819Z,1.90
2023-03-31T03:56:04.055Z,1.52
2023-03-31T04:01:04.863Z,1.42
2023-03-31T04:03:32.177Z,1.65
2023-03-31T04:06:05.758Z,1.50
2023-03-31T04:08:33.313Z,1.50
2023-03-31T04:11:07.726Z,1.30
2023-03-31T04:13:41.563Z,1.23
2023-03-31T04:16:23.646Z,1.50
2023-03-31T04:18:57.480Z,1.65
2023-03-31T04:21:24.755Z,1.88
2023-03-31T04:24:05.570Z,1.40
2023-03-31T04:26:43.721Z,1.70
2023-03-31T04:31:47.960Z,1.73
2023-03-31T04:36:53.539Z,1.63
2023-03-31T04:39:26.992Z,1.88
2023-03-31T04:42:01.580Z,2.00
2023-03-31T04:44:29.278Z,2.10
2023-03-31T04:47:03.635Z,1.95
2023-03-31T04:49:33.704Z,2.20
2023-03-31T04:52:00.967Z,2.33
2023-03-31T04:54:34.608Z,2.05
2023-03-31T04:57:01.866Z,1.70
2023-03-31T04:59:35.957Z,1.92
2023-03-31T05:02:03.231Z,1.65
2023-03-31T05:04:30.430Z,1.95
2023-03-31T05:07:04.634Z,2.10
2023-03-31T05:09:33.008Z,1.90
2023-03-31T05:12:01.186Z,2.05
2023-03-31T05:14:34.505Z,2.10
2023-03-31T05:17:15.495Z,2.65
2023-03-31T05:19:42.742Z,2.15
2023-03-31T05:22:09.890Z,2.03
2023-03-31T05:24:43.508Z,1.90
2023-03-31T05:27:10.652Z,2.40
2023-03-31T05:29:44.752Z,2.10
2023-03-31T05:32:11.953Z,1.90
2023-03-31T05:34:39.113Z,2.00
2023-03-31T05:37:12.537Z,1.70
2023-03-31T05:39:39.757Z,2.00
2023-03-31T05:42:14.685Z,2.20
2023-03-31T05:44:41.834Z,1.92
2023-03-31T05:47:08.946Z,1.67
2023-03-31T05:49:42.605Z,2.05
2023-03-31T05:52:10.031Z,1.95
2023-03-31T05:54:43.647Z,1.92
2023-03-31T05:57:11.921Z,1.70
2023-03-31T05:59:40.844Z,2.05
2023-03-31T06:02:14.577Z,2.20
2023-03-31T06:04:43.674Z,1.85
2023-03-31T06:07:17.548Z,1.92
2023-03-31T06:09:44.745Z,1.80
2023-03-31T06:12:18.686Z,1.77
2023-03-31T06:14:52.602Z,1.90
2023-03-31T06:17:26.591Z,1.90
2023-03-31T06:19:53.791Z,1.80
2023-03-31T06:22:21.108Z,1.70
2023-03-31T06:24:54.699Z,1.90
2023-03-31T06:27:21.939Z,1.60
2023-03-31T06:29:56.659Z,2.00
2023-03-31T06:32:23.900Z,1.90
2023-03-31T06:34:51.122Z,1.48
2023-03-31T06:37:24.573Z,1.80
2023-03-31T06:39:51.717Z,2.25
2023-03-31T06:42:25.955Z,1.77
2023-03-31T06:44:53.114Z,1.80
2023-03-31T06:47:20.371Z,1.85
2023-03-31T06:49:54.636Z,1.77
2023-03-31T06:52:21.826Z,2.00
2023-03-31T06:54:55.646Z,1.75
2023-03-31T06:57:22.984Z,1.80
2023-03-31T06:59:50.083Z,2.42
2023-03-31T07:02:23.665Z,1.80
2023-03-31T07:04:50.883Z,1.95
2023-03-31T07:07:24.596Z,2.10
2023-03-31T07:09:51.744Z,2.10
2023-03-31T07:12:18.849Z,2.13
2023-03-31T07:14:56.678Z,1.88
2023-03-31T07:17:30.631Z,2.22
2023-03-31T07:20:04.748Z,1.80
2023-03-31T07:22:31.944Z,1.95
2023-03-31T07:24:59.192Z,1.80
2023-03-31T07:27:32.659Z,2.10
2023-03-31T07:29:59.923Z,1.98
2023-03-31T07:32:33.866Z,2.05
2023-03-31T07:35:01.097Z,2.28
2023-03-31T07:37:28.188Z,2.30
2023-03-31T07:40:02.598Z,2.00
2023-03-31T07:42:29.938Z,2.20
2023-03-31T07:45:04.624Z,2.00
2023-03-31T07:47:32.001Z,2.20
2023-03-31T07:49:59.148Z,2.30
2023-03-31T07:52:32.562Z,2.33
2023-03-31T07:54:59.856Z,2.15
2023-03-31T07:57:33.600Z,2.38
2023-03-31T08:00:02.139Z,2.33
2023-03-31T08:02:29.441Z,2.20
2023-03-31T08:05:03.606Z,2.22
2023-03-31T08:07:31.050Z,2.47
2023-03-31T08:10:05.715Z,2.33
2023-03-31T08:12:32.944Z,2.42
2023-03-31T08:15:20.685Z,2.25
2023-03-31T08:17:47.894Z,2.42
2023-03-31T08:20:15.407Z,2.47
2023-03-31T08:25:23.705Z,2.20
2023-03-31T08:27:57.568Z,2.47
2023-03-31T08:30:31.481Z,2.25
2023-03-31T08:33:05.620Z,2.53
2023-03-31T08:35:46.537Z,2.65
2023-03-31T08:38:20.698Z,2.58
2023-03-31T08:40:47.848Z,2.25
2023-03-31T08:43:30.521Z,2.22
2023-03-31T08:46:04.755Z,2.38
2023-03-31T08:48:51.559Z,2.35
2023-03-31T08:51:28.488Z,2.70
2023-03-31T08:54:09.539Z,2.25
2023-03-31T08:56:44.518Z,2.60
2023-03-31T08:59:31.436Z,2.20
2023-03-31T09:02:20.602Z,2.28
2023-03-31T09:04:58.244Z,2.72
2023-03-31T09:07:34.572Z,1.90
2023-03-31T09:10:13.874Z,2.22
2023-03-31T09:13:06.655Z,2.72
2023-03-31T09:15:48.412Z,2.22
2023-03-31T09:18:30.553Z,2.33
2023-03-31T09:21:07.985Z,2.20
2023-03-31T09:23:53.647Z,2.80
2023-03-31T09:26:41.498Z,2.42
2023-03-31T09:29:22.510Z,2.30
2023-03-31T09:31:49.802Z,2.63
2023-03-31T09:34:18.580Z,2.50
2023-03-31T09:36:52.604Z,2.80
2023-03-31T09:39:19.754Z,2.83
2023-03-31T09:41:55.582Z,2.63
2023-03-31T09:44:50.097Z,2.90
2023-03-31T09:47:26.622Z,2.63
2023-03-31T09:49:54.662Z,2.90
2023-03-31T09:52:37.821Z,2.80
2023-03-31T09:55:07.817Z,3.17
2023-03-31T09:57:36.739Z,2.47
2023-03-31T10:00:23.588Z,2.97
2023-03-31T10:02:54.442Z,2.50
2023-03-31T10:05:38.565Z,2.90
2023-03-31T10:08:12.003Z,2.78
2023-03-31T10:10:45.687Z,2.90
2023-03-31T10:13:16.663Z,2.60
2023-03-31T10:15:57.615Z,2.53
2023-03-31T10:18:38.416Z,2.35
2023-03-31T10:21:13.592Z,2.33
2023-03-31T10:23:46.540Z,2.75
2023-03-31T10:26:23.683Z,2.95
2023-03-31T10:29:05.794Z,3.17
2023-03-31T10:31:46.751Z,3.00
2023-03-31T10:34:17.156Z,2.70
2023-03-31T10:36:54.648Z,3.05
2023-03-31T10:39:32.884Z,2.63
2023-03-31T10:44:36.855Z,3.20
2023-03-31T10:47:06.057Z,2.45
2023-03-31T10:49:44.650Z,3.40
2023-03-31T10:52:36.492Z,2.75
2023-03-31T10:55:10.677Z,3.17
2023-03-31T10:58:02.530Z,3.00
2023-03-31T11:00:38.048Z,3.33
2023-03-31T11:03:14.757Z,3.20
2023-03-31T11:06:00.203Z,2.15
2023-03-31T11:08:44.649Z,2.83
2023-03-31T11:11:31.277Z,2.90
2023-03-31T11:14:09.538Z,2.95
2023-03-31T11:19:19.518Z,3.35
2023-03-31T11:21:55.706Z,4.88
2023-03-31T11:24:26.325Z,3.10
2023-03-31T11:26:59.629Z,3.00
2023-03-31T11:29:33.083Z,3.13
2023-03-31T11:32:09.881Z,3.10
2023-03-31T11:34:39.882Z,2.97
2023-03-31T11:37:38.693Z,3.33
2023-03-31T11:40:12.104Z,2.78
2023-03-31T11:42:56.722Z,2.90
2023-03-31T11:45:27.222Z,3.08
2023-03-31T11:47:56.286Z,3.10
2023-03-31T11:50:32.612Z,3.08
2023-03-31T11:53:03.149Z,3.08
2023-03-31T11:55:38.595Z,3.28
2023-03-31T11:58:05.788Z,3.08
2023-03-31T12:00:46.599Z,3.13
2023-03-31T12:03:16.014Z,3.42
2023-03-31T12:05:54.812Z,3.35
2023-03-31T12:08:37.214Z,3.25
2023-03-31T12:11:20.645Z,2.97
2023-03-31T12:13:51.189Z,3.50
2023-03-31T12:16:34.907Z,3.28
2023-03-31T12:19:08.152Z,2.97
2023-03-31T12:21:42.741Z,3.35
2023-03-31T12:24:13.627Z,2.78
2023-03-31T12:27:04.631Z,3.35
2023-03-31T12:29:34.189Z,3.10
2023-03-31T12:32:03.657Z,3.78
2023-03-31T12:34:37.591Z,3.80
2023-03-31T12:37:15.761Z,3.50
2023-03-31T12:42:19.592Z,3.47
2023-03-31T12:45:02.606Z,4.13
2023-03-31T12:47:41.923Z,3.45
2023-03-31T12:50:34.642Z,3.90
2023-03-31T12:53:20.329Z,4.50
2023-03-31T12:55:55.587Z,3.92
2023-03-31T12:58:26.815Z,3.97
2023-03-31T13:01:16.851Z,4.13
2023-03-31T13:03:46.140Z,4.05
2023-03-31T13:06:39.699Z,3.88
2023-03-31T13:09:11.410Z,4.07
2023-03-31T13:11:47.671Z,4.15
2023-03-31T13:14:26.731Z,3.85
2023-03-31T13:17:19.613Z,4.07
2023-03-31T13:19:47.443Z,3.88
2023-03-31T13:22:37.657Z,3.97
2023-03-31T13:25:23.589Z,4.63
2023-03-31T13:27:59.643Z,3.65
2023-03-31T13:30:42.241Z,3.88
2023-03-31T13:33:23.682Z,3.20
2023-03-31T13:35:53.544Z,3.42
2023-03-31T13:38:36.904Z,4.03
2023-03-31T13:41:10.111Z,3.65
2023-03-31T13:43:55.778Z,3.70
2023-03-31T13:46:32.110Z,3.40
2023-03-31T13:49:24.755Z,3.80
2023-03-31T13:51:54.683Z,3.88
2023-03-31T13:54:45.758Z,3.50
2023-03-31T13:57:31.581Z,3.50
2023-03-31T14:00:23.807Z,3.58
2023-03-31T14:03:03.016Z,3.50
2023-03-31T14:05:55.599Z,3.58
2023-03-31T14:08:34.862Z,3.55
2023-03-31T14:11:34.726Z,3.90
2023-03-31T14:14:03.511Z,3.50
2023-03-31T14:16:46.945Z,3.80
2023-03-31T14:19:32.905Z,3.83
2023-03-31T14:22:21.722Z,2.80
2023-03-31T14:27:44.730Z,3.80
2023-03-31T14:30:21.250Z,3.35
2023-03-31T14:33:13.616Z,3.35
2023-03-31T14:35:49.552Z,3.55
2023-03-31T14:38:18.972Z,4.28
2023-03-31T14:40:54.578Z,3.75
2023-03-31T14:43:26.181Z,4.28
2023-03-31T14:46:04.616Z,4.07
2023-03-31T14:48:34.214Z,3.40
2023-03-31T14:51:02.568Z,3.92
2023-03-31T14:53:36.605Z,3.90
2023-03-31T14:56:06.793Z,3.58
2023-03-31T14:58:41.612Z,3.55
2023-03-31T15:01:09.805Z,4.38
2023-03-31T15:03:47.770Z,4.20
2023-03-31T15:06:15.404Z,3.40
2023-03-31T15:08:42.684Z,4.38
2023-03-31T15:11:19.754Z,4.10
2023-03-31T15:14:04.231Z,3.63
2023-03-31T15:16:48.735Z,3.20
2023-03-31T15:19:17.630Z,3.90
2023-03-31T15:21:51.799Z,3.90
2023-03-31T15:24:19.228Z,3.75
2023-03-31T15:29:43.616Z,3.65
2023-03-31T15:32:21.016Z,3.70
2023-03-31T15:34:54.635Z,4.25
2023-03-31T15:37:23.287Z,4.30
2023-03-31T15:39:56.599Z,3.88
2023-03-31T15:42:23.963Z,3.67
2023-03-31T15:45:23.705Z,3.67
2023-03-31T15:47:52.872Z,3.53
2023-03-31T15:50:29.713Z,3.90
2023-03-31T15:52:58.154Z,3.65
2023-03-31T15:55:48.629Z,3.90
2023-03-31T15:58:16.850Z,3.88
2023-03-31T16:00:55.625Z,3.53
2023-03-31T16:03:38.734Z,4.50
2023-03-31T16:06:17.603Z,3.75
2023-03-31T16:08:46.715Z,4.32
2023-03-31T16:11:22.602Z,4.57
2023-03-31T16:13:53.738Z,4.45
2023-03-31T16:16:35.740Z,4.20
2023-03-31T16:19:10.627Z,4.50
2023-03-31T16:21:58.724Z,4.07
2023-03-31T16:24:32.815Z,4.53
2023-03-31T16:27:12.638Z,4.82
2023-03-31T16:29:39.947Z,4.72
2023-03-31T16:32:14.681Z,4.70
2023-03-31T16:34:55.375Z,5.00
2023-03-31T16:37:29.787Z,4.43
2023-03-31T16:39:57.630Z,4.65
2023-03-31T16:42:31.678Z,4.80
2023-03-31T16:45:13.045Z,5.15
2023-03-31T16:47:48.836Z,5.38
2023-03-31T16:50:16.104Z,4.88
2023-03-31T16:52:50.676Z,5.07
2023-03-31T16:55:24.567Z,4.85
2023-03-31T16:57:59.776Z,5.20
2023-03-31T17:00:27.032Z,5.50
2023-03-31T17:02:54.393Z,4.80
2023-03-31T17:05:28.755Z,5.47
2023-03-31T17:07:56.575Z,5.15
2023-03-31T17:10:30.758Z,5.18
2023-03-31T17:12:57.955Z,5.05
2023-03-31T17:15:31.660Z,5.07
2023-03-31T17:17:59.427Z,5.22
2023-03-31T17:20:33.934Z,5.28
2023-03-31T17:23:01.458Z,5.05
2023-03-31T17:25:35.776Z,5.40
2023-03-31T17:28:04.291Z,5.03
2023-03-31T17:30:32.147Z,5.18
2023-03-31T17:33:06.681Z,5.20
2023-03-31T17:35:34.027Z,3.72
2023-03-31T17:38:07.823Z,5.68
2023-03-31T17:40:35.057Z,4.95
2023-03-31T17:43:02.894Z,4.75
2023-03-31T17:45:37.654Z,4.25
2023-03-31T17:48:06.563Z,4.72
2023-03-31T17:50:40.980Z,4.07
2023-03-31T17:53:09.172Z,4.40
2023-03-31T17:55:39.271Z,4.40
2023-03-31T17:58:14.742Z,4.25
2023-03-31T18:00:41.952Z,4.68
2023-03-31T18:03:15.766Z,4.28
2023-03-31T18:05:43.336Z,4.10
2023-03-31T18:10:44.650Z,3.60
2023-03-31T18:13:11.815Z,3.30
2023-03-31T18:15:45.776Z,4.15
2023-03-31T18:18:20.636Z,3.78
2023-03-31T18:20:54.655Z,4.30
2023-03-31T18:23:21.856Z,3.63
2023-03-31T18:25:55.852Z,4.10
2023-03-31T18:28:23.113Z,3.88
2023-03-31T18:30:50.216Z,4.50
2023-03-31T18:33:24.822Z,4.85
2023-03-31T18:35:53.088Z,4.85
2023-03-31T18:38:26.708Z,4.30
2023-03-31T18:40:54.212Z,4.43
2023-03-31T18:46:02.652Z,4.10
2023-03-31T18:48:29.916Z,4.20
2023-03-31T18:51:03.878Z,3.92
2023-03-31T18:53:31.281Z,3.80
2023-03-31T18:55:59.324Z,3.60
2023-03-31T18:58:35.969Z,4.35
2023-03-31T19:01:03.243Z,3.95
2023-03-31T19:03:30.837Z,4.40
2023-03-31T19:06:12.730Z,3.53
2023-03-31T19:08:40.518Z,3.33
2023-03-31T19:11:16.885Z,3.40
2023-03-31T19:13:44.253Z,3.70
2023-03-31T19:16:25.818Z,3.97
2023-03-31T19:18:59.580Z,3.55
2023-03-31T19:21:33.715Z,3.55
2023-03-31T19:24:00.952Z,3.58
2023-03-31T19:26:29.531Z,3.47
2023-03-31T19:29:03.681Z,3.90
2023-03-31T19:31:33.616Z,3.47
2023-03-31T19:34:07.915Z,3.53
2023-03-31T19:36:35.884Z,3.63
2023-03-31T19:39:04.399Z,3.38
2023-03-31T19:41:38.754Z,3.25
2023-03-31T19:44:06.102Z,2.85
2023-03-31T19:46:39.712Z,3.08
2023-03-31T19:49:07.276Z,3.72
2023-03-31T19:54:07.646Z,2.95
2023-03-31T19:56:35.034Z,3.22
2023-03-31T19:59:09.691Z,2.92
2023-03-31T20:01:37.457Z,2.90
2023-03-31T20:04:04.766Z,2.50
2023-03-31T20:06:39.776Z,2.85
2023-03-31T20:09:07.056Z,2.92
2023-03-31T20:11:34.625Z,3.00
2023-03-31T20:14:08.662Z,2.47
2023-03-31T20:16:44.510Z,2.60
2023-03-31T20:19:19.661Z,2.60
2023-03-31T20:21:47.011Z,2.70
2023-03-31T20:24:24.715Z,2.70
2023-03-31T20:26:52.004Z,2.78
2023-03-31T20:29:19.263Z,2.30
2023-03-31T20:31:53.808Z,2.10
2023-03-31T20:34:22.642Z,2.95
2023-03-31T20:36:58.747Z,2.65
2023-03-31T20:39:26.097Z,2.30
2023-03-31T20:41:55.084Z,2.17
2023-03-31T20:44:29.810Z,2.20
2023-03-31T20:46:59.038Z,2.08
2023-03-31T20:49:33.020Z,2.35
2023-03-31T20:52:00.358Z,1.95
2023-03-31T20:54:27.735Z,2.45
2023-03-31T20:59:29.518Z,2.30
2023-03-31T21:02:03.953Z,2.10
2023-03-31T21:04:31.117Z,2.30
2023-03-31T21:06:58.216Z,2.38
2023-03-31T21:09:31.825Z,2.00
2023-03-31T21:11:59.048Z,2.10
2023-03-31T21:14:26.208Z,2.00
2023-03-31T21:16:59.801Z,2.10
2023-03-31T21:19:33.872Z,1.90
2023-03-31T21:22:07.667Z,2.08
2023-03-31T21:24:35.438Z,1.90
2023-03-31T21:27:08.774Z,1.90
2023-03-31T21:29:42.632Z,2.35
2023-03-31T21:32:09.816Z,2.10
2023-03-31T21:34:43.631Z,1.88
2023-03-31T21:37:10.910Z,2.20
2023-03-31T21:39:44.688Z,2.05
2023-03-31T21:42:11.920Z,1.98
2023-03-31T21:44:39.003Z,2.17
2023-03-31T21:47:12.813Z,1.85
2023-03-31T21:49:40.018Z,2.08
2023-03-31T21:52:13.756Z,2.00
2023-03-31T21:54:40.978Z,1.88
2023-03-31T21:57:08.743Z,2.35
2023-03-31T21:59:42.845Z,1.70
2023-03-31T22:02:10.392Z,2.20
2023-03-31T22:04:37.794Z,2.15
2023-03-31T22:07:11.726Z,1.60
2023-03-31T22:09:38.987Z,2.38
2023-03-31T22:12:12.711Z,2.10
2023-03-31T22:14:39.863Z,2.00
2023-03-31T22:17:20.943Z,1.80
2023-03-31T22:19:48.211Z,2.10
2023-03-31T22:22:15.756Z,2.08
2023-03-31T22:24:49.783Z,1.80
2023-03-31T22:27:16.959Z,2.13
2023-03-31T22:29:50.727Z,2.15
2023-03-31T22:32:20.017Z,2.13
2023-03-31T22:34:47.375Z,1.88
2023-03-31T22:37:21.753Z,2.10
2023-03-31T22:39:48.962Z,2.47
2023-03-31T22:42:22.755Z,2.00
2023-03-31T22:44:49.826Z,2.13
2023-03-31T22:47:17.495Z,2.00
2023-03-31T22:49:51.692Z,2.22
2023-03-31T22:52:18.942Z,2.20
2023-03-31T22:54:52.877Z,2.05
2023-03-31T22:57:20.272Z,1.75
2023-03-31T22:59:47.413Z,2.10
2023-03-31T23:02:20.864Z,2.17
2023-03-31T23:04:48.063Z,1.88
2023-03-31T23:07:15.911Z,2.00
2023-03-31T23:09:49.675Z,2.20
2023-03-31T23:12:16.889Z,2.03
2023-03-31T23:14:50.702Z,1.80
2023-03-31T23:17:24.778Z,2.10
2023-03-31T23:19:58.844Z,1.92
2023-03-31T23:22:26.489Z,1.90
2023-03-31T23:24:53.619Z,1.80
2023-03-31T23:27:27.767Z,2.08
2023-03-31T23:29:54.907Z,1.75
2023-03-31T23:32:28.854Z,1.92
2023-03-31T23:34:56.348Z,2.00
2023-03-31T23:37:23.443Z,2.20
2023-03-31T23:39:57.801Z,1.70
2023-03-31T23:42:25.178Z,2.17
2023-03-31T23:47:26.390Z,1.70
2023-03-31T23:52:27.715Z,2.00
2023-03-31T23:54:55.047Z,2.05
2023-03-31T23:59:56.073Z,1.95
